Weather observations for the past three days for
Marysville Municipal Airport
Imperial (Metric)
Date Time (cdt) Wind (mph) Vis. (mi.) Weather Sky Cond. Temperature (ºF) Relative Humidity Wind Chill (°F) Heat Index (°F) Pressure Precipitation (in)
Air Dwpt 6 hour altimeter (in) sea level (mb) 1 hr 3 hr 6 hr
Max. Min.
04 17:55 S 8 10.00 Fair CLR 93.2 66.2 41% 96 29.88 0.0
04 17:35 S 9 10.00 Fair CLR 93.2 66.2 41% 96 29.88 0.0
04 17:15 S 9 10.00 Fair CLR 95 68 41% 100 29.88 0.0
04 16:55 S 8 10.00 Fair CLR 95 66.2 39% 98 29.88 0.0
04 16:35 SE 9 10.00 Fair CLR 95 68 41% 100 29.89 0.0
04 16:15 SE 7 10.00 Fair CLR 95 68 41% 100 29.89 0.0
04 15:55 S 9 10.00 Fair CLR 95 69.8 44% 101 29.9 0.0
04 15:35 S 8 10.00 Fair CLR 95 69.8 44% 101 29.9 0.0
04 15:15 S 7 10.00 Fair CLR 95 69.8 44% 101 29.9 0.0
04 14:55 SE 6 10.00 Fair CLR 95 69.8 44% 101 29.91 0.0
04 14:35 SE 8 10.00 Fair CLR 95 69.8 44% 101 29.91 0.0
04 14:15 S 8 10.00 Fair CLR 93.2 69.8 47% 99 29.92 0.0
04 13:55 S 10 10.00 Fair CLR 93.2 71.6 50% 101 29.92 0.0
04 13:35 S 7 10.00 Fair CLR 93.2 71.6 50% 101 29.93 0.0
04 13:15 S 10 10.00 Fair CLR 91.4 71.6 52% 99 29.93 0.0
04 12:55 S 7 10.00 Fair CLR 91.4 71.6 52% 99 29.93 0.0
04 12:35 S 9 G 16 10.00 Fair CLR 89.6 69.8 52% 95 29.93 0.0
04 12:15 S 10 10.00 Fair CLR 89.6 69.8 52% 95 29.93 0.0
04 11:55 S 10 10.00 Fair CLR 87.8 71.6 59% 94 29.93 0.0
04 11:35 S 9 10.00 Fair CLR 87.8 69.8 55% 93 29.93 0.0
04 11:15 S 7 10.00 Fair CLR 87.8 69.8 55% 93 29.93 0.0
04 10:55 S 9 10.00 Fair CLR 86 69.8 59% 91 29.93 0.0
04 10:35 S 9 10.00 Fair CLR 86 69.8 59% 91 29.93 0.0
04 10:15 S 12 10.00 Fair CLR 84.2 69.8 62% 88 29.93 0.0
04 09:55 S 13 10.00 Fair CLR 82.4 68 62% 85 29.93 0.0
04 09:35 S 14 10.00 Fair CLR 82.4 68 62% 85 29.92 0.0
04 09:15 S 10 G 16 10.00 Fair CLR 80.6 68 66% 83 29.93 0.0
04 08:55 S 10 10.00 Fair CLR 80.6 68 66% 83 29.93 0.0
04 08:35 S 7 10.00 Fair CLR 78.8 68 70% 81 29.92 0.0
04 08:15 SE 8 10.00 Fair CLR 77 68 74% 79 29.92 0.0
04 07:55 S 8 10.00 Fair CLR 77 68 74% 79 29.92 0.0
04 07:35 S 8 10.00 Fair CLR 75.2 68 78% 76 29.9 0.0
04 07:15 S 7 10.00 Fair CLR 73.4 66.2 78% 29.9 0.0
04 06:55 S 6 10.00 Fair CLR 73.4 66.2 78% 29.9 0.0
04 06:35 S 8 10.00 Fair CLR 75.2 66.2 74% 77 29.9 0.0
04 06:15 S 7 10.00 Fair CLR 75.2 66.2 74% 77 29.89 0.0
04 05:55 S 7 10.00 Fair CLR 75.2 66.2 74% 77 29.89 0.0
04 05:35 S 8 10.00 Fair CLR 75.2 66.2 74% 77 29.89 0.0
04 05:15 S 7 10.00 Fair CLR 77 66.2 69% 79 29.9 0.0
04 04:55 S 6 10.00 Fair CLR 77 66.2 69% 79 29.89 0.0
04 04:35 S 6 10.00 Fair CLR 75.2 66.2 74% 77 29.89 0.0
04 04:15 S 6 10.00 Fair CLR 77 66.2 69% 79 29.89 0.0
04 03:50 S 6 10.00 Fair CLR 77 66.2 69% 79 29.89 0.0
04 03:35 S 5 10.00 Fair CLR 77 66.2 69% 79 29.89 0.0
04 03:15 S 5 10.00 Fair CLR 77 64.4 65% 79 29.89 0.0
04 02:55 S 6 10.00 Fair CLR 78.8 64.4 61% 81 29.88 0.0
04 02:35 S 6 10.00 Fair CLR 78.8 64.4 61% 81 29.88 0.0
04 02:15 S 6 10.00 Fair CLR 78.8 64.4 61% 81 29.88 0.0
04 01:55 S 6 10.00 Fair CLR 78.8 64.4 61% 81 29.88 0.0
04 01:35 S 6 10.00 Fair CLR 78.8 64.4 61% 81 29.88 0.0
04 01:15 S 7 10.00 Fair CLR 80.6 64.4 58% 82 29.88 0.0
04 00:55 S 9 7.00 Fair CLR 80.6 62.6 54% 82 29.88 0.0
04 00:35 S 9 10.00 Fair CLR 80.6 62.6 54% 82 29.87 0.0
04 00:15 S 10 10.00 Fair CLR 80.6 62.6 54% 82 29.86 0.0
03 23:55 S 10 G 20 10.00 Fair CLR 82.4 62.6 51% 83 29.86 0.0
03 23:35 S 10 G 17 10.00 Fair CLR 82.4 62.6 51% 83 29.85 0.0
03 22:55 SE 9 10.00 Fair CLR 84.2 62.6 48% 85 29.85 0.0
03 22:35 SE 10 G 16 10.00 Fair CLR 86 62.6 46% 87 29.85 0.0
03 22:15 SE 7 10.00 Fair CLR 84.2 62.6 48% 85 29.85 0.0
03 21:55 SE 8 10.00 Fair CLR 82.4 62.6 51% 83 29.85 0.0
03 21:35 SE 8 10.00 Fair CLR 82.4 62.6 51% 83 29.84 0.0
03 21:15 SE 7 10.00 Fair CLR 84.2 62.6 48% 85 29.83 0.0
03 20:55 SE 7 10.00 Fair CLR 82.4 62.6 51% 83 29.83 0.0
03 20:35 SE 7 10.00 Fair CLR 86 60.8 43% 86 29.82 0.0
03 20:15 SE 9 10.00 Fair CLR 87.8 62.6 43% 88 29.81 0.0
03 19:55 SE 9 10.00 Fair CLR 87.8 62.6 43% 88 29.81 0.0
03 19:35 S 9 10.00 Fair CLR 89.6 62.6 41% 90 29.8 0.0
03 19:15 S 8 10.00 Fair CLR 89.6 62.6 41% 90 29.8 0.0
03 18:55 S 7 10.00 Fair CLR 91.4 64.4 41% 93 29.8 0.0
03 18:35 S 8 10.00 Fair CLR 91.4 62.6 38% 92 29.81 0.0
03 18:15 S 14 G 17 10.00 Fair CLR 93.2 62.6 36% 94 29.8 0.0
03 17:55 S 13 G 17 10.00 Fair CLR 95 62.6 34% 96 29.8 0.0
03 17:35 S 12 G 20 10.00 Fair CLR 95 62.6 34% 96 29.8 0.0
03 17:15 S 14 G 22 10.00 Fair CLR 95 62.6 34% 96 29.8 0.0
03 16:55 S 15 10.00 Fair CLR 95 64.4 36% 97 29.8 0.0
03 16:35 S 14 G 17 10.00 Fair CLR 95 64.4 36% 97 29.81 0.0
03 16:15 S 16 G 22 10.00 Fair CLR 95 64.4 36% 97 29.81 0.0
03 15:55 S 14 G 18 10.00 Fair CLR 95 64.4 36% 97 29.81 0.0
03 15:35 S 15 G 22 10.00 Fair CLR 95 64.4 36% 97 29.82 0.0
03 15:15 S 16 G 23 10.00 Fair CLR 95 64.4 36% 97 29.82 0.0
03 14:55 S 16 G 21 10.00 Fair CLR 95 68 41% 100 29.82 0.0
03 14:35 S 12 G 22 10.00 Fair CLR 95 68 41% 100 29.83 0.0
03 14:15 SE 16 G 23 10.00 Fair CLR 93.2 66.2 41% 96 29.82 0.0
03 13:55 S 13 G 23 10.00 Fair CLR 91.4 66.2 44% 94 29.85 0.0
03 13:35 S 15 G 24 10.00 Fair CLR 91.4 66.2 44% 94 29.85 0.0
03 13:15 S 15 G 25 10.00 Fair CLR 91.4 66.2 44% 94 29.85 0.0
03 12:55 S 17 G 23 10.00 Fair CLR 91.4 68 46% 96 29.86 0.0
03 12:35 S 17 G 21 10.00 Fair CLR 89.6 68 49% 93 29.87 0.0
03 12:15 S 17 G 21 10.00 Fair CLR 89.6 66.2 46% 92 29.87 0.0
03 11:55 S 13 G 20 10.00 Fair CLR 87.8 66.2 49% 90 29.88 0.0
03 11:35 S 16 G 22 10.00 Fair CLR 89.6 68 49% 93 29.88 0.0
03 11:15 S 13 G 17 10.00 Fair CLR 87.8 66.2 49% 90 29.88 0.0
03 10:55 S 16 G 22 10.00 Fair CLR 87.8 66.2 49% 90 29.88 0.0
03 10:35 S 12 G 17 10.00 Partly Cloudy SCT120 86 66.2 52% 88 29.88 0.0
03 10:15 S 9 G 16 10.00 Partly Cloudy SCT110 86 66.2 52% 88 29.88 0.0
03 09:55 S 12 G 17 10.00 Fair CLR 86 64.4 49% 87 29.88 0.0
03 09:35 S 12 10.00 Fair CLR 82.4 64.4 55% 84 29.88 0.0
03 09:15 S 13 G 16 10.00 Fair CLR 82.4 64.4 55% 84 29.89 0.0
03 08:55 S 10 G 16 10.00 Partly Cloudy SCT120 80.6 62.6 54% 82 29.89 0.0
03 08:35 S 10 10.00 Mostly Cloudy BKN120 78.8 62.6 58% 80 29.89 0.0
03 08:15 S 10 10.00 Mostly Cloudy BKN120 78.8 62.6 58% 80 29.89 0.0
03 07:55 S 9 10.00 Partly Cloudy SCT120 78.8 62.6 58% 80 29.88 0.0
03 07:35 S 7 10.00 Fair CLR 78.8 60.8 54% 80 29.89 0.0
03 07:15 S 7 10.00 Fair CLR 78.8 60.8 54% 80 29.88 0.0
03 06:55 S 9 10.00 Partly Cloudy SCT120 78.8 60.8 54% 80 29.88 0.0
03 06:35 S 8 10.00 Partly Cloudy SCT120 78.8 60.8 54% 80 29.88 0.0
03 06:15 S 8 10.00 Partly Cloudy SCT120 78.8 60.8 54% 80 29.88 0.0
03 05:55 S 8 10.00 Mostly Cloudy BKN120 78.8 60.8 54% 80 29.88 0.0
03 05:35 S 6 10.00 Mostly Cloudy BKN120 78.8 60.8 54% 80 29.88 0.0
03 05:15 S 6 10.00 Partly Cloudy SCT120 78.8 60.8 54% 80 29.88 0.0
03 04:55 S 6 10.00 Fair CLR 78.8 60.8 54% 80 29.88 0.0
03 04:35 S 7 10.00 Partly Cloudy SCT120 78.8 60.8 54% 80 29.88 0.0
03 04:15 S 8 10.00 Mostly Cloudy BKN120 80.6 60.8 51% 81 29.88 0.0
03 03:55 S 8 10.00 Mostly Cloudy BKN120 80.6 60.8 51% 81 29.88 0.0
03 03:35 S 8 10.00 Partly Cloudy SCT120 80.6 60.8 51% 81 29.88 0.0
03 03:15 S 8 10.00 Partly Cloudy SCT120 80.6 60.8 51% 81 29.88 0.0
03 02:55 S 7 10.00 Partly Cloudy SCT120 78.8 60.8 54% 80 29.88 0.0
03 02:35 S 6 10.00 Mostly Cloudy BKN120 78.8 60.8 54% 80 29.88 0.0
03 02:15 S 7 10.00 Partly Cloudy SCT120 78.8 60.8 54% 80 29.88 0.0
03 01:55 S 6 10.00 Fair CLR 78.8 60.8 54% 80 29.88 0.0
03 01:35 S 8 10.00 Fair CLR 78.8 60.8 54% 80 29.88 0.0
03 01:15 S 7 10.00 Fair CLR 80.6 60.8 51% 81 29.88 0.0
03 00:55 S 8 10.00 Fair CLR 80.6 60.8 51% 81 29.88 0.0
03 00:35 S 9 10.00 Fair CLR 80.6 60.8 51% 81 29.88 0.0
03 00:15 S 8 10.00 Fair CLR 80.6 60.8 51% 81 29.87 0.0
02 23:55 S 9 10.00 Fair CLR 82.4 60.8 48% 83 29.87 0.0
02 23:35 S 9 10.00 Fair CLR 82.4 60.8 48% 83 29.87 0.0
02 23:15 S 9 10.00 Fair CLR 82.4 60.8 48% 83 29.87 0.0
02 22:55 SE 6 10.00 Fair CLR 77 60.8 57% 79 29.87 0.0
02 22:35 SE 5 10.00 Fair CLR 77 60.8 57% 79 29.87 0.0
02 22:15 SE 5 10.00 Fair CLR 78.8 60.8 54% 80 29.87 0.0
02 21:55 SE 5 10.00 Fair CLR 78.8 59 51% 80 29.87 0.0
02 21:35 SE 6 10.00 Fair CLR 80.6 59 48% 81 29.86 0.0
02 21:15 SE 6 10.00 Fair CLR 84.2 57.2 40% 83 29.86 0.0
02 20:55 SE 6 10.00 Fair CLR 84.2 59 43% 84 29.86 0.0
02 20:35 SE 7 10.00 Fair CLR 84.2 59 43% 84 29.85 0.0
02 20:15 SE 7 10.00 Fair CLR 86 60.8 43% 86 29.85 0.0
02 19:55 SE 6 10.00 Fair CLR 86 60.8 43% 86 29.85 0.0
02 19:35 SE 6 10.00 Fair CLR 87.8 60.8 40% 88 29.85 0.0
02 19:15 SE 7 10.00 Fair CLR 89.6 60.8 38% 90 29.85 0.0
02 18:55 SE 7 10.00 Fair CLR 91.4 60.8 36% 91 29.85 0.0
02 18:35 SE 7 10.00 Fair CLR 93.2 60.8 34% 93 29.85 0.0
02 18:15 S 7 10.00 Fair CLR 95 60.8 32% 95 29.85 0.0
02 17:55 S 9 10.00 Fair CLR 95 59 30% 94 29.85 0.0
02 17:35 S 8 G 16 10.00 Fair CLR 95 57.2 28% 94 29.85 0.0
02 17:15 S 13 G 17 10.00 Fair CLR 96.8 57.2 27% 96 29.85 0.0
02 16:55 S 13 G 18 10.00 Fair CLR 96.8 59 28% 96 29.85 0.0
02 16:35 S 10 G 20 10.00 Fair CLR 96.8 59 28% 96 29.86 0.0
02 16:15 S 9 10.00 Fair CLR 96.8 60.8 30% 97 29.86 0.0
02 15:55 S 15 G 21 10.00 Fair CLR 96.8 59 28% 96 29.87 0.0
02 15:35 S 14 G 21 10.00 Fair CLR 96.8 59 28% 96 29.88 0.0
02 15:15 S 16 10.00 Fair CLR 96.8 60.8 30% 97 29.88 0.0
02 14:55 S 14 G 24 10.00 Fair CLR 96.8 60.8 30% 97 29.89 0.0
02 14:35 S 14 G 17 10.00 Fair CLR 96.8 62.6 32% 98 29.89 0.0
02 14:15 S 16 G 21 10.00 Fair CLR 96.8 64.4 34% 99 29.9 0.0
02 13:55 S 14 G 20 10.00 Partly Cloudy SCT120 95 62.6 34% 96 29.91 0.0
02 13:35 SW 14 G 18 10.00 Partly Cloudy SCT110 93.2 62.6 36% 94 29.92 0.0
02 13:15 SW 8 10.00 Partly Cloudy SCT120 91.4 64.4 41% 93 29.92 0.0
02 12:55 SW 9 G 16 10.00 Partly Cloudy SCT120 89.6 64.4 43% 91 29.93 0.0
02 12:35 SW 13 G 25 10.00 Fair CLR 89.6 62.6 41% 90 29.94 0.0
02 12:15 S 13 10.00 Partly Cloudy SCT110 89.6 64.4 43% 91 29.94 0.0
02 11:55 SW 13 G 20 10.00 Partly Cloudy SCT110 89.6 64.4 43% 91 29.94 0.0
02 11:35 S 16 G 23 10.00 Fair CLR 89.6 62.6 41% 90 29.95 0.0
02 11:15 SW 17 G 24 10.00 Fair CLR 87.8 62.6 43% 88 29.95 0.0
02 10:55 S 16 G 22 10.00 Partly Cloudy SCT110 87.8 62.6 43% 88 29.95 0.0
02 10:35 SW 13 G 21 10.00 Partly Cloudy SCT110 86 62.6 46% 87 29.95 0.0
02 10:15 SW 14 G 21 10.00 Fair CLR 86 60.8 43% 86 29.95 0.0
02 09:55 S 13 10.00 Fair CLR 84.2 60.8 45% 84 29.94 0.0
02 09:35 SW 9 10.00 Fair CLR 82.4 60.8 48% 83 29.94 0.0
02 09:15 S 10 10.00 Fair CLR 82.4 60.8 48% 83 29.95 0.0
02 08:55 S 8 10.00 Partly Cloudy SCT110 80.6 60.8 51% 81 29.95 0.0
02 08:35 S 6 10.00 Mostly Cloudy BKN110 80.6 60.8 51% 81 29.95 0.0
02 08:15 S 5 10.00 Fair CLR 78.8 60.8 54% 80 29.95 0.0
02 07:55 S 6 10.00 Fair CLR 77 60.8 57% 79 29.95 0.0
02 07:35 S 7 10.00 Fair CLR 75.2 59 57% 78 29.94 0.0
02 07:15 S 8 10.00 Fair CLR 75.2 59 57% 78 29.94 0.0
02 06:55 S 7 10.00 Fair CLR 75.2 59 57% 78 29.93 0.0
02 06:35 S 6 10.00 Fair CLR 75.2 59 57% 78 29.93 0.0
02 06:15 S 7 10.00 Fair CLR 75.2 59 57% 78 29.93 0.0
02 05:55 S 6 10.00 Fair CLR 77 59 54% 79 29.93 0.0
02 05:35 S 6 10.00 Partly Cloudy SCT110 77 59 54% 79 29.93 0.0
02 05:15 S 7 10.00 Partly Cloudy SCT120 77 59 54% 79 29.93 0.0
02 04:55 S 7 10.00 Partly Cloudy SCT120 78.8 59 51% 80 29.93 0.0
02 04:35 S 8 10.00 Partly Cloudy SCT120 78.8 59 51% 80 29.93 0.0
02 04:15 S 7 10.00 Partly Cloudy SCT120 78.8 59 51% 80 29.93 0.0
02 03:55 S 9 10.00 Mostly Cloudy BKN120 78.8 59 51% 80 29.93 0.0
02 03:35 S 8 10.00 Partly Cloudy SCT120 78.8 57.2 48% 80 29.93 0.0
02 03:15 S 8 10.00 Partly Cloudy SCT120 78.8 57.2 48% 80 29.93 0.0
02 02:55 S 7 10.00 Fair CLR 78.8 57.2 48% 80 29.93 0.0
02 02:35 S 7 10.00 Fair CLR 77 57.2 51% 79 29.93 0.0
02 02:15 S 7 10.00 Fair CLR 78.8 55.4 45% 79 29.93 0.0
02 01:55 S 7 10.00 Fair CLR 78.8 55.4 45% 79 29.93 0.0
02 01:35 S 8 10.00 Fair CLR 78.8 55.4 45% 79 29.93 0.0
02 01:15 S 9 10.00 Fair CLR 78.8 55.4 45% 79 29.92 0.0
02 00:55 S 8 10.00 Fair CLR 80.6 55.4 42% 81 29.92 0.0
02 00:35 S 9 10.00 Fair CLR 82.4 55.4 40% 82 29.92 0.0
02 00:15 S 9 10.00 Fair CLR 82.4 55.4 40% 82 29.92 0.0
01 23:55 S 13 10.00 Fair CLR 84.2 53.6 35% 83 29.92 0.0
01 23:35 S 9 10.00 Fair CLR 82.4 53.6 37% 81 29.92 0.0
01 23:15 S 12 G 16 10.00 Fair CLR 82.4 53.6 37% 81 29.92 0.0
01 22:55 S 8 10.00 Fair CLR 82.4 55.4 40% 82 29.92 0.0
01 22:35 S 8 10.00 Fair CLR 82.4 55.4 40% 82 29.92 0.0
01 22:15 S 7 10.00 Fair CLR 80.6 57.2 45% 81 29.91 0.0
01 21:55 S 5 10.00 Fair CLR 80.6 59 48% 81 29.9 0.0
01 21:35 S 7 10.00 Fair CLR 80.6 59 48% 81 29.9 0.0
01 21:15 S 6 10.00 Fair CLR 82.4 59 45% 82 29.89 0.0
01 20:55 S 8 10.00 Fair CLR 82.4 59 45% 82 29.88 0.0
01 20:35 S 8 10.00 Fair CLR 84.2 59 43% 84 29.87 0.0
01 20:15 S 8 10.00 Fair CLR 86 60.8 43% 86 29.87 0.0
01 19:55 S 8 10.00 Fair CLR 86 60.8 43% 86 29.86 0.0
01 19:35 S 9 10.00 Fair CLR 87.8 60.8 40% 88 29.87 0.0
01 19:15 S 7 10.00 Fair CLR 89.6 60.8 38% 90 29.87 0.0
01 18:55 S 7 10.00 Fair CLR 91.4 60.8 36% 91 29.88 0.0
01 18:35 S 10 10.00 Fair CLR 91.4 59 34% 91 29.88 0.0
Date Time (cdt) Wind (mph) Vis. (mi.) Weather Sky Cond. Air Dwpt Max. Min. Relative Humidity Wind Chill (°F) Heat Index (°F) altimeter (in) sea level (mb) 1 hr 3 hr 6 hr
6 hour
Temperature (ºF) Pressure Precipitation (in)